createdAt,value
2022-08-28T00:01:02.788Z,21.10
2022-08-28T00:03:32.444Z,20.10
2022-08-28T00:06:00.445Z,20.90
2022-08-28T00:08:30.637Z,20.50
2022-08-28T00:10:58.558Z,21.00
2022-08-28T00:13:26.955Z,24.20
2022-08-28T00:16:00.956Z,20.50
2022-08-28T00:18:31.479Z,23.60
2022-08-28T00:21:00.200Z,19.70
2022-08-28T00:23:42.319Z,21.60
2022-08-28T00:26:32.346Z,21.80
2022-08-28T00:29:00.363Z,19.00
2022-08-28T00:31:28.336Z,23.00
2022-08-28T00:33:56.323Z,19.20
2022-08-28T00:36:24.187Z,18.40
2022-08-28T00:38:52.035Z,20.50
2022-08-28T00:41:24.887Z,19.50
2022-08-28T00:44:10.371Z,20.20
2022-08-28T00:46:39.570Z,18.90
2022-08-28T00:49:07.560Z,20.80
2022-08-28T00:51:55.774Z,22.10
2022-08-28T00:54:25.240Z,24.40
2022-08-28T00:56:54.998Z,20.70
2022-08-28T00:59:25.356Z,19.40
2022-08-28T01:01:57.326Z,19.20
2022-08-28T01:04:29.217Z,20.50
2022-08-28T01:06:57.517Z,19.70
2022-08-28T01:09:29.729Z,18.80
2022-08-28T01:12:16.688Z,23.70
2022-08-28T01:14:48.930Z,18.90
2022-08-28T01:17:18.487Z,20.30
2022-08-28T01:19:57.228Z,19.00
2022-08-28T01:22:41.607Z,19.70
2022-08-28T01:25:15.145Z,23.40
2022-08-28T01:27:43.049Z,25.50
2022-08-28T01:30:15.829Z,23.50
2022-08-28T01:32:54.576Z,20.90
2022-08-28T01:35:32.006Z,21.90
2022-08-28T01:38:01.242Z,22.00
2022-08-28T01:40:44.585Z,22.20
2022-08-28T01:43:19.894Z,24.90
2022-08-28T01:45:53.027Z,18.60
2022-08-28T01:48:25.157Z,19.80
2022-08-28T01:50:53.731Z,21.90
2022-08-28T01:53:25.803Z,20.20
2022-08-28T01:56:04.741Z,21.00
2022-08-28T01:58:37.876Z,20.90
2022-08-28T02:01:12.330Z,19.90
2022-08-28T02:03:43.336Z,21.30
2022-08-28T02:06:13.724Z,18.00
2022-08-28T02:08:41.681Z,18.20
2022-08-28T02:11:10.497Z,24.10
2022-08-28T02:13:40.387Z,18.20
2022-08-28T02:16:10.643Z,19.10
2022-08-28T02:18:38.909Z,20.20
2022-08-28T02:21:09.021Z,21.50
2022-08-28T02:23:43.790Z,18.20
2022-08-28T02:26:13.543Z,19.60
2022-08-28T02:28:42.463Z,18.30
2022-08-28T02:31:11.238Z,18.10
2022-08-28T02:33:44.872Z,20.30
2022-08-28T02:36:15.251Z,24.90
2022-08-28T02:39:05.260Z,19.80
2022-08-28T02:41:59.773Z,21.50
2022-08-28T02:44:27.840Z,21.30
2022-08-28T02:46:55.630Z,19.70
2022-08-28T02:49:36.067Z,20.80
2022-08-28T02:52:06.946Z,19.50
2022-08-28T02:54:35.386Z,24.70
2022-08-28T02:57:04.017Z,22.00
2022-08-28T02:59:32.257Z,23.20
2022-08-28T03:02:01.014Z,21.60
2022-08-28T03:04:28.862Z,24.50
2022-08-28T03:06:56.659Z,25.30
2022-08-28T03:09:24.694Z,20.60
2022-08-28T03:11:54.099Z,21.60
2022-08-28T03:14:22.760Z,23.00
2022-08-28T03:16:50.701Z,23.30
2022-08-28T03:19:50.648Z,21.20
2022-08-28T03:22:40.044Z,23.30
2022-08-28T03:25:08.837Z,20.80
2022-08-28T03:27:38.597Z,22.20
2022-08-28T03:30:09.251Z,26.50
2022-08-28T03:32:37.521Z,28.40
2022-08-28T03:35:11.026Z,21.50
2022-08-28T03:37:40.250Z,23.60
2022-08-28T03:40:10.556Z,23.30
2022-08-28T03:42:38.954Z,30.70
2022-08-28T03:45:12.390Z,28.60
2022-08-28T03:47:41.973Z,27.50
2022-08-28T03:50:12.501Z,26.00
2022-08-28T03:52:41.367Z,26.70
2022-08-28T03:55:12.383Z,23.70
2022-08-28T03:57:40.780Z,28.90
2022-08-28T04:00:12.688Z,26.50
2022-08-28T04:02:42.662Z,28.20
2022-08-28T04:05:11.503Z,28.60
2022-08-28T04:07:40.335Z,25.10
2022-08-28T04:10:09.182Z,27.30
2022-08-28T04:12:37.592Z,27.60
2022-08-28T04:15:07.253Z,29.10
2022-08-28T04:17:39.258Z,27.80
2022-08-28T04:20:11.183Z,29.30
2022-08-28T04:22:40.127Z,30.50
2022-08-28T04:25:11.628Z,29.50
2022-08-28T04:27:40.271Z,28.80
2022-08-28T04:30:09.925Z,29.20
2022-08-28T04:32:39.487Z,28.60
2022-08-28T04:35:11.316Z,26.40
2022-08-28T04:37:40.486Z,31.60
2022-08-28T04:40:11.064Z,32.20
2022-08-28T04:42:40.249Z,26.80
2022-08-28T04:45:08.556Z,31.50
2022-08-28T04:47:39.565Z,29.70
2022-08-28T04:50:08.685Z,29.90
2022-08-28T04:52:36.733Z,34.30
2022-08-28T04:55:05.554Z,27.10
2022-08-28T04:57:36.427Z,26.10
2022-08-28T05:00:07.792Z,29.80
2022-08-28T05:02:43.442Z,33.20
2022-08-28T05:10:08.288Z,31.40
2022-08-28T05:12:36.913Z,26.90
2022-08-28T05:15:05.951Z,30.30
2022-08-28T05:17:33.937Z,24.30
2022-08-28T05:20:02.332Z,28.30
2022-08-28T05:22:32.636Z,30.80
2022-08-28T05:27:30.805Z,28.40
2022-08-28T05:30:01.994Z,27.30
2022-08-28T05:32:30.351Z,27.20
2022-08-28T05:34:58.720Z,27.00
2022-08-28T05:37:37.043Z,26.80
2022-08-28T05:40:06.708Z,28.80
2022-08-28T05:42:38.876Z,25.20
2022-08-28T05:45:08.227Z,28.50
2022-08-28T05:47:36.267Z,26.70
2022-08-28T05:50:06.319Z,28.10
2022-08-28T05:52:38.808Z,26.80
2022-08-28T05:55:18.096Z,28.60
2022-08-28T05:57:48.796Z,23.30
2022-08-28T06:00:18.616Z,24.20
2022-08-28T06:02:46.648Z,28.80
2022-08-28T06:05:16.521Z,27.60
2022-08-28T06:07:44.431Z,26.40
2022-08-28T06:10:12.392Z,23.80
2022-08-28T06:12:43.134Z,26.40
2022-08-28T06:15:21.875Z,28.30
2022-08-28T06:17:49.928Z,24.60
2022-08-28T06:20:18.092Z,22.80
2022-08-28T06:22:46.097Z,22.50
2022-08-28T06:25:14.449Z,25.70
2022-08-28T06:27:43.056Z,22.10
2022-08-28T06:30:12.873Z,27.20
2022-08-28T06:32:41.071Z,25.20
2022-08-28T06:35:19.421Z,22.40
2022-08-28T06:38:01.410Z,21.60
2022-08-28T06:40:51.106Z,26.80
2022-08-28T06:43:27.774Z,21.00
2022-08-28T06:45:58.146Z,22.10
2022-08-28T06:48:28.647Z,22.20
2022-08-28T06:50:57.950Z,24.90
2022-08-28T06:53:29.558Z,22.60
2022-08-28T06:56:26.278Z,22.00
2022-08-28T06:58:58.148Z,21.00
2022-08-28T07:01:37.754Z,29.70
2022-08-28T07:04:10.181Z,23.10
2022-08-28T07:09:13.924Z,24.90
2022-08-28T07:11:49.031Z,20.00
2022-08-28T07:14:17.389Z,21.20
2022-08-28T07:16:46.036Z,21.10
2022-08-28T07:19:14.583Z,19.40
2022-08-28T07:21:49.804Z,19.20
2022-08-28T07:24:18.206Z,21.60
2022-08-28T07:26:47.950Z,21.00
2022-08-28T07:29:17.746Z,17.70
2022-08-28T07:31:49.659Z,24.30
2022-08-28T07:34:20.595Z,20.30
2022-08-28T07:36:51.906Z,19.50
2022-08-28T07:39:20.547Z,16.80
2022-08-28T07:41:48.739Z,22.00
2022-08-28T07:44:38.437Z,17.90
2022-08-28T07:47:08.658Z,20.30
2022-08-28T07:49:36.650Z,24.00
2022-08-28T07:52:07.862Z,24.70
2022-08-28T07:54:40.572Z,29.80
2022-08-28T07:57:10.384Z,31.50
2022-08-28T07:59:39.987Z,18.40
2022-08-28T08:02:12.053Z,20.30
2022-08-28T08:04:40.813Z,18.30
2022-08-28T08:07:13.041Z,18.00
2022-08-28T08:09:43.728Z,17.30
2022-08-28T08:12:13.766Z,22.90
2022-08-28T08:14:44.163Z,18.80
2022-08-28T08:17:12.249Z,19.00
2022-08-28T08:19:41.056Z,19.50
2022-08-28T08:22:09.084Z,23.70
2022-08-28T08:24:37.456Z,14.60
2022-08-28T08:27:10.256Z,19.20
2022-08-28T08:29:39.185Z,18.30
2022-08-28T08:32:10.761Z,17.50
2022-08-28T08:34:42.428Z,21.40
2022-08-28T08:37:12.811Z,17.20
2022-08-28T08:39:42.702Z,16.60
2022-08-28T08:42:32.779Z,14.40
2022-08-28T08:45:04.388Z,16.20
2022-08-28T08:47:54.124Z,16.70
2022-08-28T08:50:30.037Z,14.50
2022-08-28T08:53:28.771Z,15.40
2022-08-28T08:55:58.303Z,17.00
2022-08-28T08:58:45.768Z,18.60
2022-08-28T09:02:06.752Z,18.30
2022-08-28T09:05:08.205Z,17.10
2022-08-28T09:07:59.665Z,19.10
2022-08-28T09:10:39.699Z,15.60
2022-08-28T09:13:50.330Z,14.30
2022-08-28T09:16:32.296Z,16.70
2022-08-28T09:19:01.064Z,15.80
2022-08-28T09:21:34.538Z,15.00
2022-08-28T09:24:10.978Z,15.00
2022-08-28T09:26:40.599Z,16.80
2022-08-28T09:29:17.248Z,13.30
2022-08-28T09:31:45.464Z,15.60
2022-08-28T09:34:24.142Z,18.00
2022-08-28T09:36:54.909Z,15.60
2022-08-28T09:39:36.032Z,17.00
2022-08-28T09:42:45.404Z,18.70
2022-08-28T09:45:21.363Z,15.10
2022-08-28T09:47:58.367Z,15.40
2022-08-28T09:50:38.841Z,15.30
2022-08-28T09:53:09.965Z,17.10
2022-08-28T09:56:11.185Z,15.50
2022-08-28T09:59:15.831Z,17.60
2022-08-28T10:01:47.732Z,16.40
2022-08-28T10:04:29.110Z,17.70
2022-08-28T10:07:30.517Z,11.70
2022-08-28T10:10:35.975Z,14.50
2022-08-28T10:13:10.971Z,24.00
2022-08-28T10:15:44.040Z,13.40
2022-08-28T10:18:47.217Z,14.00
2022-08-28T10:21:41.108Z,17.80
2022-08-28T10:24:34.618Z,15.70
2022-08-28T10:27:57.285Z,13.50
2022-08-28T10:30:29.854Z,15.50
2022-08-28T10:33:22.138Z,13.50
2022-08-28T10:36:03.898Z,16.80
2022-08-28T10:38:50.822Z,14.20
2022-08-28T10:41:26.146Z,13.20
2022-08-28T10:43:55.370Z,13.60
2022-08-28T10:46:35.751Z,16.50
2022-08-28T10:49:13.331Z,14.60
2022-08-28T10:51:58.594Z,17.00
2022-08-28T10:55:04.968Z,16.30
2022-08-28T10:57:39.554Z,15.20
2022-08-28T11:00:16.745Z,14.50
2022-08-28T11:02:55.040Z,12.70
2022-08-28T11:05:27.782Z,13.90
2022-08-28T11:08:07.042Z,16.20
2022-08-28T11:10:35.106Z,22.20
2022-08-28T11:13:10.418Z,17.10
2022-08-28T11:15:45.881Z,13.50
2022-08-28T11:18:16.231Z,15.80
2022-08-28T11:20:58.310Z,17.90
2022-08-28T11:23:57.635Z,17.20
2022-08-28T11:26:58.944Z,23.10
2022-08-28T11:30:31.355Z,18.30
2022-08-28T11:33:04.236Z,17.50
2022-08-28T11:35:49.728Z,14.90
2022-08-28T11:38:42.700Z,16.40
2022-08-28T11:41:41.988Z,14.40
2022-08-28T11:44:11.323Z,15.50
2022-08-28T11:46:43.655Z,17.50
2022-08-28T11:49:26.824Z,17.60
2022-08-28T11:58:41.901Z,16.60
2022-08-28T12:01:14.516Z,15.10
2022-08-28T12:04:08.122Z,18.90
2022-08-28T12:06:45.454Z,17.10
2022-08-28T12:09:50.007Z,19.20
2022-08-28T12:12:20.751Z,18.80
2022-08-28T12:14:48.563Z,14.60
2022-08-28T12:17:31.196Z,13.30
2022-08-28T12:20:11.309Z,16.10
2022-08-28T12:22:50.374Z,15.40
2022-08-28T12:25:46.906Z,18.70
2022-08-28T12:28:44.333Z,17.10
2022-08-28T12:31:57.390Z,17.60
2022-08-28T12:37:04.300Z,14.60
2022-08-28T12:39:32.764Z,15.80
2022-08-28T12:42:03.770Z,14.20
2022-08-28T12:44:33.378Z,16.00
2022-08-28T12:47:01.360Z,14.80
2022-08-28T12:49:37.278Z,12.20
2022-08-28T12:52:12.278Z,10.10
2022-08-28T12:54:46.648Z,16.30
2022-08-28T12:57:20.784Z,11.60
2022-08-28T12:59:55.629Z,14.20
2022-08-28T13:02:34.256Z,11.50
2022-08-28T13:05:08.360Z,11.30
2022-08-28T13:07:41.854Z,9.50
2022-08-28T13:10:30.064Z,10.10
2022-08-28T13:13:07.711Z,8.10
2022-08-28T13:16:04.189Z,10.60
2022-08-28T13:18:44.346Z,10.70
2022-08-28T13:21:32.566Z,8.80
2022-08-28T13:24:21.362Z,10.10
2022-08-28T13:27:12.870Z,10.40
2022-08-28T13:29:52.489Z,8.50
2022-08-28T13:32:26.189Z,9.50
2022-08-28T13:35:13.084Z,9.50
2022-08-28T13:37:48.879Z,8.50
2022-08-28T13:40:55.658Z,10.60
2022-08-28T13:43:11.910Z,9.10
2022-08-28T13:45:46.243Z,9.10
2022-08-28T13:48:23.679Z,10.60
2022-08-28T13:51:03.554Z,9.70
2022-08-28T13:53:33.126Z,7.40
2022-08-28T13:56:00.997Z,8.30
2022-08-28T13:58:29.261Z,8.80
2022-08-28T14:00:57.504Z,10.00
2022-08-28T14:03:41.301Z,10.20
2022-08-28T14:06:16.854Z,11.00
2022-08-28T14:08:46.705Z,8.20
2022-08-28T14:11:15.853Z,8.30
2022-08-28T14:13:47.231Z,9.70
2022-08-28T14:16:25.650Z,9.40
2022-08-28T14:18:53.941Z,9.00
2022-08-28T14:21:24.624Z,9.70
2022-08-28T14:23:53.011Z,8.50
2022-08-28T14:26:20.964Z,11.00
2022-08-28T14:28:48.758Z,8.40
2022-08-28T14:31:16.981Z,9.60
2022-08-28T14:33:45.097Z,10.50
2022-08-28T14:36:22.420Z,9.00
2022-08-28T14:38:54.266Z,9.40
2022-08-28T14:41:24.196Z,10.10
2022-08-28T14:43:53.443Z,9.20
2022-08-28T14:46:31.609Z,9.00
2022-08-28T14:49:04.065Z,9.80
2022-08-28T14:51:35.075Z,9.80
2022-08-28T14:54:03.281Z,9.30
2022-08-28T14:56:32.833Z,9.10
2022-08-28T14:59:02.717Z,11.10
2022-08-28T15:01:40.499Z,7.90
2022-08-28T15:04:14.252Z,9.80
2022-08-28T15:06:43.272Z,7.50
2022-08-28T15:09:13.503Z,7.10
2022-08-28T15:11:42.339Z,7.60
2022-08-28T15:14:11.280Z,8.90
2022-08-28T15:16:45.850Z,8.30
2022-08-28T15:19:18.088Z,7.40
2022-08-28T15:21:55.308Z,7.60
2022-08-28T15:24:35.765Z,6.80
2022-08-28T15:27:03.833Z,7.00
2022-08-28T15:29:31.677Z,6.50
2022-08-28T15:32:00.733Z,7.90
2022-08-28T15:34:28.930Z,7.90
2022-08-28T15:36:58.474Z,6.70
2022-08-28T15:39:47.521Z,8.20
2022-08-28T15:42:15.814Z,9.40
2022-08-28T15:44:44.421Z,7.80
2022-08-28T15:47:13.864Z,7.80
2022-08-28T15:49:43.545Z,9.90
2022-08-28T15:52:21.278Z,7.50
2022-08-28T15:57:17.781Z,7.60
2022-08-28T15:59:49.532Z,8.50
2022-08-28T16:02:21.768Z,6.20
2022-08-28T16:04:50.456Z,5.90
2022-08-28T16:07:20.477Z,5.90
2022-08-28T16:09:49.237Z,6.00
2022-08-28T16:12:17.705Z,5.30
2022-08-28T16:14:45.562Z,7.10
2022-08-28T16:17:14.111Z,6.10
2022-08-28T16:19:43.119Z,5.90
2022-08-28T16:22:12.923Z,11.80
2022-08-28T16:24:40.731Z,5.10
2022-08-28T16:27:13.244Z,6.10
2022-08-28T16:29:46.429Z,7.20
2022-08-28T16:32:17.862Z,5.40
2022-08-28T16:34:45.748Z,7.40
2022-08-28T16:37:18.552Z,4.40
2022-08-28T16:39:47.600Z,5.60
2022-08-28T16:42:15.648Z,6.00
2022-08-28T16:44:43.502Z,5.10
2022-08-28T16:47:11.348Z,4.00
2022-08-28T16:49:40.362Z,6.20
2022-08-28T16:52:08.223Z,5.70
2022-08-28T16:54:36.070Z,7.20
2022-08-28T16:57:03.962Z,7.20
2022-08-28T16:59:31.819Z,8.20
2022-08-28T17:01:59.960Z,8.40
2022-08-28T17:04:27.879Z,10.20
2022-08-28T17:06:56.307Z,7.10
2022-08-28T17:09:24.667Z,9.70
2022-08-28T17:11:53.578Z,9.60
2022-08-28T17:14:22.116Z,8.80
2022-08-28T17:16:51.455Z,9.40
2022-08-28T17:19:20.917Z,10.40
2022-08-28T17:22:07.565Z,10.30
2022-08-28T17:24:35.941Z,9.80
2022-08-28T17:27:05.848Z,9.20
2022-08-28T17:29:36.454Z,11.30
2022-08-28T17:32:07.809Z,11.60
2022-08-28T17:34:37.554Z,11.00
2022-08-28T17:37:05.911Z,11.40
2022-08-28T17:39:33.803Z,10.80
2022-08-28T17:42:01.695Z,8.40
2022-08-28T17:44:30.755Z,11.10
2022-08-28T17:46:58.541Z,11.30
2022-08-28T17:49:27.018Z,9.50
2022-08-28T17:51:55.071Z,8.90
2022-08-28T17:54:24.339Z,7.80
2022-08-28T17:56:54.603Z,9.60
2022-08-28T17:59:24.747Z,9.80
2022-08-28T18:01:58.174Z,10.80
2022-08-28T18:04:44.742Z,8.50
2022-08-28T18:07:12.960Z,7.50
2022-08-28T18:09:41.201Z,10.10
2022-08-28T18:12:12.587Z,8.40
2022-08-28T18:14:41.289Z,7.80
2022-08-28T18:17:10.863Z,9.60
2022-08-28T18:19:40.197Z,8.90
2022-08-28T18:22:14.863Z,6.70
2022-08-28T18:24:46.786Z,8.40
2022-08-28T18:27:14.743Z,9.20
2022-08-28T18:29:42.609Z,7.30
2022-08-28T18:32:13.435Z,7.50
2022-08-28T18:34:41.528Z,7.60
2022-08-28T18:37:09.663Z,8.80
2022-08-28T18:39:39.240Z,9.20
2022-08-28T18:42:07.700Z,9.00
2022-08-28T18:44:37.050Z,14.30
2022-08-28T18:47:07.353Z,7.70
2022-08-28T18:49:35.294Z,6.60
2022-08-28T18:52:04.509Z,8.90
2022-08-28T18:54:37.762Z,8.90
2022-08-28T18:57:09.063Z,7.60
2022-08-28T18:59:45.039Z,8.00
2022-08-28T19:02:18.109Z,9.40
2022-08-28T19:04:49.295Z,9.40
2022-08-28T19:07:17.325Z,9.50
2022-08-28T19:09:45.537Z,7.00
2022-08-28T19:12:13.505Z,9.00
2022-08-28T19:14:44.338Z,7.80
2022-08-28T19:17:12.333Z,9.90
2022-08-28T19:19:40.515Z,9.10
2022-08-28T19:22:08.591Z,9.20
2022-08-28T19:24:36.559Z,7.90
2022-08-28T19:27:05.121Z,8.10
2022-08-28T19:29:33.093Z,7.30
2022-08-28T19:32:01.167Z,9.30
2022-08-28T19:34:32.676Z,9.00
2022-08-28T19:37:01.650Z,9.70
2022-08-28T19:39:32.760Z,13.90
2022-08-28T19:42:05.573Z,12.70
2022-08-28T19:44:33.672Z,10.10
2022-08-28T19:47:02.136Z,12.00
2022-08-28T19:49:30.477Z,11.50
2022-08-28T19:52:01.325Z,10.00
2022-08-28T19:54:32.179Z,9.10
2022-08-28T19:57:00.008Z,10.90
2022-08-28T19:59:28.142Z,10.90
2022-08-28T20:02:03.588Z,17.00
2022-08-28T20:04:38.865Z,14.50
2022-08-28T20:07:09.103Z,12.60
2022-08-28T20:09:39.319Z,10.30
2022-08-28T20:12:07.472Z,12.90
2022-08-28T20:14:48.635Z,11.00
2022-08-28T20:17:18.854Z,10.10
2022-08-28T20:19:47.762Z,10.80
2022-08-28T20:22:15.896Z,14.20
2022-08-28T20:24:44.205Z,9.90
2022-08-28T20:27:12.069Z,13.10
2022-08-28T20:29:40.001Z,10.60
2022-08-28T20:32:07.785Z,17.70
2022-08-28T20:34:35.769Z,13.20
2022-08-28T20:37:04.306Z,16.80
2022-08-28T20:39:32.139Z,12.70
2022-08-28T20:42:00.054Z,15.90
2022-08-28T20:44:27.855Z,14.80
2022-08-28T20:46:55.688Z,13.50
2022-08-28T20:49:23.908Z,12.60
2022-08-28T20:51:59.046Z,15.90
2022-08-28T20:54:34.011Z,16.10
2022-08-28T20:57:09.535Z,16.60
2022-08-28T20:59:40.799Z,16.20
2022-08-28T21:02:19.422Z,15.80
2022-08-28T21:04:47.857Z,15.90
2022-08-28T21:07:18.850Z,16.20
2022-08-28T21:10:05.589Z,19.40
2022-08-28T21:12:39.032Z,17.40
2022-08-28T21:15:10.880Z,16.40
2022-08-28T21:17:40.277Z,17.30
2022-08-28T21:20:13.284Z,14.80
2022-08-28T21:22:42.217Z,14.80
2022-08-28T21:25:10.890Z,17.50
2022-08-28T21:27:40.277Z,18.50
2022-08-28T21:30:12.933Z,15.30
2022-08-28T21:32:40.766Z,17.80
2022-08-28T21:35:11.133Z,18.20
2022-08-28T21:37:41.343Z,17.10
2022-08-28T21:40:12.326Z,19.20
2022-08-28T21:42:40.550Z,17.30
2022-08-28T21:45:12.048Z,12.50
2022-08-28T21:47:41.936Z,15.80
2022-08-28T21:50:11.015Z,14.30
2022-08-28T21:52:39.116Z,16.30
2022-08-28T21:55:14.965Z,16.00
2022-08-28T21:57:43.164Z,14.10
2022-08-28T22:00:23.743Z,15.40
2022-08-28T22:02:52.035Z,11.50
2022-08-28T22:05:20.680Z,10.70
2022-08-28T22:07:53.833Z,11.90
2022-08-28T22:10:23.213Z,13.30
2022-08-28T22:12:51.612Z,13.90
2022-08-28T22:15:19.622Z,12.70
2022-08-28T22:17:47.714Z,12.20
2022-08-28T22:20:16.146Z,12.10
2022-08-28T22:23:02.763Z,8.50
2022-08-28T22:25:31.034Z,10.70
2022-08-28T22:27:59.716Z,10.70
2022-08-28T22:30:27.719Z,13.50
2022-08-28T22:32:55.687Z,11.10
2022-08-28T22:35:23.548Z,11.60
2022-08-28T22:37:54.013Z,12.20
2022-08-28T22:40:23.037Z,11.00
2022-08-28T22:42:51.337Z,11.60
2022-08-28T22:45:20.433Z,9.50
2022-08-28T22:47:49.789Z,10.40
2022-08-28T22:50:17.909Z,10.60
2022-08-28T22:52:49.997Z,11.90
2022-08-28T22:55:20.930Z,12.00
2022-08-28T22:57:50.072Z,10.60
2022-08-28T23:00:24.050Z,11.90
2022-08-28T23:02:56.512Z,11.50
2022-08-28T23:05:26.984Z,12.00
2022-08-28T23:07:55.603Z,10.70
2022-08-28T23:10:36.939Z,11.70
2022-08-28T23:13:14.504Z,14.00
2022-08-28T23:15:44.007Z,11.20
2022-08-28T23:18:11.944Z,12.80
2022-08-28T23:20:40.497Z,11.70
2022-08-28T23:23:08.948Z,10.50
2022-08-28T23:25:37.015Z,13.30
2022-08-28T23:28:06.552Z,10.70
2022-08-28T23:30:39.158Z,13.40
2022-08-28T23:33:08.839Z,12.20
2022-08-28T23:35:37.303Z,12.20
2022-08-28T23:38:05.766Z,10.80
2022-08-28T23:40:34.075Z,8.80
2022-08-28T23:43:04.319Z,12.80
2022-08-28T23:45:32.671Z,12.60
2022-08-28T23:48:01.495Z,12.80
2022-08-28T23:50:30.489Z,10.90
2022-08-28T23:52:58.729Z,10.10
2022-08-28T23:55:27.016Z,11.80
2022-08-28T23:57:55.952Z,11.00
